Time;durP1;ratioP1;P1;durP2;ratioP2;P2;SDS_P1;SDS_P2;PMS_P1;PMS_P2;Temp;Humidity;BMP_temperature;BMP_pressure;BME280_temperature;BME280_humidity;BME280_pressure;Samples;Min_cycle;Max_cycle;Signal;HPM_P1;HPM_P2
2021/05/03 00:00:01;;;;;;;13.10;11.97;;;;;;;;;;4871529;28;20239;-78
2021/05/03 00:02:29;;;;;;;12.77;11.57;;;;;;;;;;4891522;29;20229;-78
2021/05/03 00:04:57;;;;;;;12.87;11.67;;;;;;;;;;4898502;29;21026;-80
2021/05/03 00:07:25;;;;;;;12.57;11.37;;;;;;;;;;4888226;29;20732;-80
2021/05/03 00:09:52;;;;;;;14.20;12.67;;;;;;;;;;4894771;28;20239;-80
2021/05/03 00:12:20;;;;;;;13.47;12.20;;;;;;;;;;4887790;29;20607;-80
2021/05/03 00:14:48;;;;;;;13.23;12.03;;;;;;;;;;4889529;28;20224;-79
2021/05/03 00:17:15;;;;;;;13.07;11.83;;;;;;;;;;4870632;29;20235;-81
2021/05/03 00:19:44;;;;;;;11.67;10.60;;;;;;;;;;4888206;28;20238;-82
2021/05/03 00:22:13;;;;;;;11.37;10.27;;;;;;;;;;4888086;28;20240;-79
2021/05/03 00:24:41;;;;;;;10.80;9.80;;;;;;;;;;4895240;28;20221;-81
2021/05/03 00:27:08;;;;;;;10.27;9.37;;;;;;;;;;4890054;29;20228;-81
2021/05/03 00:29:37;;;;;;;10.37;9.27;;;;;;;;;;4882797;29;20229;-79
2021/05/03 00:32:10;;;;;;;10.10;9.20;;;;;;;;;;4888805;29;20242;-79
2021/05/03 00:34:37;;;;;;;10.33;9.33;;;;;;;;;;4890502;29;20238;-80
2021/05/03 00:37:05;;;;;;;10.00;9.10;;;;;;;;;;4874470;29;20228;-79
2021/05/03 00:39:34;;;;;;;11.37;10.17;;;;;;;;;;4886995;29;20230;-80
2021/05/03 00:42:01;;;;;;;11.43;10.33;;;;;;;;;;4876298;29;20252;-80
2021/05/03 00:44:29;;;;;;;11.77;10.60;;;;;;;;;;4893178;29;20220;-80
2021/05/03 00:46:59;;;;;;;11.27;10.27;;;;;;;;;;4894251;29;20287;-80
2021/05/03 00:49:26;;;;;;;13.67;12.20;;;;;;;;;;4878015;29;20318;-79
2021/05/03 00:51:54;;;;;;;11.87;10.60;;;;;;;;;;4892825;29;20236;-83
2021/05/03 00:54:21;;;;;;;11.77;10.57;;;;;;;;;;4916440;29;20225;-87
2021/05/03 00:56:50;;;;;;;13.07;11.87;;;;;;;;;;4888492;29;20238;-82
2021/05/03 00:59:17;;;;;;;13.03;11.73;;;;;;;;;;4888026;29;20236;-80
2021/05/03 01:01:45;;;;;;;12.03;10.83;;;;;;;;;;4886507;29;20635;-80
2021/05/03 01:04:13;;;;;;;12.63;11.43;;;;;;;;;;4871522;29;20242;-78
2021/05/03 01:06:40;;;;;;;13.30;12.00;;;;;;;;;;4896692;29;20235;-78
2021/05/03 01:09:08;;;;;;;13.37;12.07;;;;;;;;;;4886801;29;20248;-80
2021/05/03 01:11:37;;;;;;;12.50;11.30;;;;;;;;;;4879950;29;20747;-83
2021/05/03 01:14:05;;;;;;;13.07;11.83;;;;;;;;;;4879892;29;20602;-80
2021/05/03 01:16:33;;;;;;;13.33;12.03;;;;;;;;;;4896418;29;20628;-79
2021/05/03 01:19:00;;;;;;;14.27;12.87;;;;;;;;;;4880772;28;20735;-80
2021/05/03 01:21:29;;;;;;;13.67;12.27;;;;;;;;;;4882352;29;20234;-81
2021/05/03 01:23:57;;;;;;;13.67;12.23;;;;;;;;;;4883975;28;20233;-81
2021/05/03 01:26:24;;;;;;;13.97;12.57;;;;;;;;;;4887823;29;20226;-80
2021/05/03 01:28:52;;;;;;;13.23;12.00;;;;;;;;;;4886452;29;20249;-80
2021/05/03 01:31:20;;;;;;;13.10;11.90;;;;;;;;;;4898113;29;20231;-80
2021/05/03 01:33:48;;;;;;;13.43;12.13;;;;;;;;;;4878512;28;20222;-82
2021/05/03 01:36:16;;;;;;;14.10;12.70;;;;;;;;;;4873940;29;20241;-80
2021/05/03 01:38:44;;;;;;;13.77;12.47;;;;;;;;;;4891845;29;20244;-80
2021/05/03 01:41:12;;;;;;;14.40;13.00;;;;;;;;;;4889506;28;20236;-80
2021/05/03 01:43:39;;;;;;;12.77;11.57;;;;;;;;;;4875247;29;20225;-80
2021/05/03 01:46:07;;;;;;;13.67;11.83;;;;;;;;;;4879668;28;20225;-80
2021/05/03 01:48:34;;;;;;;13.37;12.00;;;;;;;;;;4893766;29;20233;-81
2021/05/03 01:51:02;;;;;;;13.70;12.40;;;;;;;;;;4900412;29;20233;-81
2021/05/03 01:53:29;;;;;;;15.33;13.87;;;;;;;;;;4887301;29;20708;-80
2021/05/03 01:55:58;;;;;;;14.37;12.97;;;;;;;;;;4891466;29;20236;-86
2021/05/03 01:58:26;;;;;;;15.17;13.70;;;;;;;;;;4893436;29;20707;-79
2021/05/03 02:00:56;;;;;;;13.50;12.20;;;;;;;;;;4891077;28;20237;-78
2021/05/03 02:03:25;;;;;;;15.70;14.10;;;;;;;;;;4876918;29;20239;-81
2021/05/03 02:06:01;;;;;;;15.93;13.83;;;;;;;;;;4888419;29;20240;-83
2021/05/03 02:08:31;;;;;;;15.47;13.87;;;;;;;;;;4892763;28;20237;-79
2021/05/03 02:11:00;;;;;;;13.70;12.30;;;;;;;;;;4888811;29;20229;-79
2021/05/03 02:13:28;;;;;;;14.60;13.10;;;;;;;;;;4890625;29;20231;-79
2021/05/03 02:15:56;;;;;;;14.87;13.37;;;;;;;;;;4872397;28;20725;-79
2021/05/03 02:18:24;;;;;;;15.20;13.70;;;;;;;;;;4869842;29;20225;-80
2021/05/03 02:20:51;;;;;;;17.73;15.13;;;;;;;;;;4893926;29;20232;-80
2021/05/03 02:23:19;;;;;;;15.67;14.03;;;;;;;;;;4892977;29;20239;-78
2021/05/03 02:25:47;;;;;;;16.07;14.40;;;;;;;;;;4879024;28;20278;-78
2021/05/03 02:28:15;;;;;;;16.73;15.07;;;;;;;;;;4876636;29;20232;-79
2021/05/03 02:30:43;;;;;;;15.37;13.87;;;;;;;;;;4892461;29;20222;-79
2021/05/03 02:33:11;;;;;;;15.20;13.70;;;;;;;;;;4904821;29;20229;-79
2021/05/03 02:35:38;;;;;;;14.50;13.20;;;;;;;;;;4878447;29;20243;-80
2021/05/03 02:38:08;;;;;;;15.73;14.23;;;;;;;;;;4895493;29;20240;-80
2021/05/03 02:40:36;;;;;;;13.60;12.30;;;;;;;;;;4890945;29;20694;-80
2021/05/03 02:43:04;;;;;;;15.87;14.30;;;;;;;;;;4885069;28;20241;-81
2021/05/03 02:45:33;;;;;;;15.97;14.40;;;;;;;;;;4896894;29;20236;-86
2021/05/03 02:48:01;;;;;;;16.77;14.90;;;;;;;;;;4891865;29;20236;-79
2021/05/03 02:50:30;;;;;;;16.30;14.60;;;;;;;;;;4887437;29;20237;-80
2021/05/03 02:52:58;;;;;;;15.17;13.77;;;;;;;;;;4881046;29;20345;-78
2021/05/03 02:55:25;;;;;;;15.80;14.07;;;;;;;;;;4899960;29;20224;-79
2021/05/03 02:57:53;;;;;;;14.93;13.43;;;;;;;;;;4874245;28;20248;-78
2021/05/03 03:00:27;;;;;;;13.90;12.50;;;;;;;;;;4895291;29;20236;-80
2021/05/03 03:02:55;;;;;;;14.60;13.13;;;;;;;;;;4897505;28;20243;-80
2021/05/03 03:05:23;;;;;;;14.77;13.27;;;;;;;;;;4890644;29;20225;-81
2021/05/03 03:07:51;;;;;;;15.17;13.77;;;;;;;;;;4887099;29;20733;-79
2021/05/03 03:10:19;;;;;;;15.63;14.13;;;;;;;;;;4891393;29;20244;-82
2021/05/03 03:12:47;;;;;;;14.73;13.33;;;;;;;;;;4892160;28;20615;-82
2021/05/03 03:15:18;;;;;;;14.77;13.23;;;;;;;;;;4889034;29;20240;-79
2021/05/03 03:17:47;;;;;;;14.87;13.40;;;;;;;;;;4890502;29;20243;-79
2021/05/03 03:20:16;;;;;;;15.47;13.97;;;;;;;;;;4886617;29;20245;-78
2021/05/03 03:22:44;;;;;;;17.03;14.43;;;;;;;;;;4904473;29;20239;-80
2021/05/03 03:25:12;;;;;;;15.87;14.13;;;;;;;;;;4893326;29;20232;-81
2021/05/03 03:27:41;;;;;;;14.67;13.27;;;;;;;;;;4886127;29;20213;-83
2021/05/03 03:30:10;;;;;;;15.97;14.07;;;;;;;;;;4892517;29;20611;-79
2021/05/03 03:32:41;;;;;;;16.73;14.47;;;;;;;;;;4878110;29;20229;-81
2021/05/03 03:35:10;;;;;;;21.47;16.53;;;;;;;;;;4884250;29;20228;-84
2021/05/03 03:37:39;;;;;;;18.10;16.23;;;;;;;;;;4868125;29;20233;-80
2021/05/03 03:40:07;;;;;;;17.07;15.27;;;;;;;;;;4886143;28;20232;-80
2021/05/03 03:42:35;;;;;;;19.37;17.40;;;;;;;;;;4884621;29;20240;-80
2021/05/03 03:45:04;;;;;;;16.67;14.97;;;;;;;;;;4894096;28;20231;-83
2021/05/03 03:47:32;;;;;;;16.77;15.10;;;;;;;;;;4906496;29;20237;-87
2021/05/03 03:50:00;;;;;;;15.17;13.57;;;;;;;;;;4893583;29;20240;-80
2021/05/03 03:52:27;;;;;;;15.37;13.77;;;;;;;;;;4891219;29;20235;-82
2021/05/03 03:54:56;;;;;;;15.93;14.33;;;;;;;;;;4871986;28;20236;-80
2021/05/03 03:57:23;;;;;;;16.03;14.43;;;;;;;;;;4890128;29;20229;-84
2021/05/03 03:59:54;;;;;;;15.50;13.90;;;;;;;;;;4874572;29;20237;-80
2021/05/03 04:02:21;;;;;;;15.87;14.37;;;;;;;;;;4867793;29;20240;-84
2021/05/03 04:05:00;;;;;;;16.10;14.33;;;;;;;;;;4900781;28;20239;-79
2021/05/03 04:07:33;;;;;;;17.27;15.57;;;;;;;;;;4898693;29;20329;-82
2021/05/03 04:10:10;;;;;;;19.87;16.77;;;;;;;;;;4892110;28;20233;-80
2021/05/03 04:12:55;;;;;;;16.80;15.13;;;;;;;;;;4892543;29;20231;-80
2021/05/03 04:21:16;;;;;;;16.63;14.93;;;;;;;;;;4887749;29;20251;-80
2021/05/03 04:23:54;;;;;;;15.33;13.73;;;;;;;;;;4878528;29;20225;-79
2021/05/03 04:26:24;;;;;;;15.93;14.43;;;;;;;;;;4896666;29;20235;-79
2021/05/03 04:28:53;;;;;;;17.63;15.73;;;;;;;;;;4874760;29;20233;-79
2021/05/03 04:31:22;;;;;;;16.60;14.90;;;;;;;;;;4895831;29;20232;-79
2021/05/03 04:33:51;;;;;;;17.70;15.83;;;;;;;;;;4895127;28;20224;-80
2021/05/03 04:36:19;;;;;;;15.90;14.20;;;;;;;;;;4888857;29;20240;-81
2021/05/03 04:38:48;;;;;;;16.30;14.70;;;;;;;;;;4883084;29;20249;-85
2021/05/03 04:41:16;;;;;;;16.97;14.97;;;;;;;;;;4880682;29;20229;-79
2021/05/03 04:43:44;;;;;;;18.83;15.10;;;;;;;;;;4887230;28;20229;-83
2021/05/03 04:46:12;;;;;;;17.27;15.50;;;;;;;;;;4884814;29;20600;-79
2021/05/03 04:48:39;;;;;;;15.87;14.27;;;;;;;;;;4896416;29;20255;-84
2021/05/03 04:51:07;;;;;;;15.83;14.23;;;;;;;;;;4884268;29;20699;-80
2021/05/03 04:53:34;;;;;;;17.27;15.47;;;;;;;;;;4890279;29;20581;-78
2021/05/03 04:56:02;;;;;;;19.07;16.97;;;;;;;;;;4889895;28;20237;-80
2021/05/03 04:58:30;;;;;;;16.27;14.67;;;;;;;;;;4899178;28;20729;-81
2021/05/03 05:00:59;;;;;;;17.23;15.40;;;;;;;;;;4897066;28;20243;-86
2021/05/03 05:03:26;;;;;;;17.10;15.20;;;;;;;;;;4896934;29;20643;-80
2021/05/03 05:05:54;;;;;;;21.20;18.13;;;;;;;;;;4897027;29;20259;-80
2021/05/03 05:08:22;;;;;;;21.63;17.80;;;;;;;;;;4891650;29;20240;-82
2021/05/03 05:10:50;;;;;;;22.50;20.10;;;;;;;;;;4893415;29;20225;-80
2021/05/03 05:13:18;;;;;;;20.90;18.73;;;;;;;;;;4888274;29;20228;-81
2021/05/03 05:15:45;;;;;;;20.70;18.50;;;;;;;;;;4902582;28;20608;-80
2021/05/03 05:18:14;;;;;;;20.43;18.23;;;;;;;;;;4877187;29;20243;-80
2021/05/03 05:20:41;;;;;;;20.40;18.30;;;;;;;;;;4880215;29;20225;-82
2021/05/03 05:23:09;;;;;;;19.03;17.13;;;;;;;;;;4895191;29;20232;-79
2021/05/03 05:25:37;;;;;;;27.77;20.03;;;;;;;;;;4871795;29;20718;-79
2021/05/03 05:28:04;;;;;;;20.73;18.53;;;;;;;;;;4879691;29;20346;-79
2021/05/03 05:30:32;;;;;;;20.90;18.70;;;;;;;;;;4875582;29;20236;-79
2021/05/03 05:33:00;;;;;;;20.97;17.73;;;;;;;;;;4878439;29;20232;-81
2021/05/03 05:35:29;;;;;;;20.23;17.23;;;;;;;;;;4888527;29;20613;-80
2021/05/03 05:37:56;;;;;;;19.93;17.70;;;;;;;;;;4881372;29;20239;-82
2021/05/03 05:40:24;;;;;;;18.90;16.97;;;;;;;;;;4895525;28;20322;-81
2021/05/03 05:42:51;;;;;;;18.67;16.67;;;;;;;;;;4893047;28;20699;-80
2021/05/03 05:45:26;;;;;;;21.63;18.07;;;;;;;;;;4869349;29;20417;-79
2021/05/03 05:47:54;;;;;;;17.63;15.73;;;;;;;;;;4871964;29;20233;-81
2021/05/03 05:50:22;;;;;;;18.10;16.23;;;;;;;;;;4891211;28;20232;-82
2021/05/03 05:52:50;;;;;;;18.70;16.73;;;;;;;;;;4875560;29;20229;-79
2021/05/03 05:55:18;;;;;;;18.17;16.37;;;;;;;;;;4894763;28;20240;-79
2021/05/03 05:57:45;;;;;;;19.30;17.20;;;;;;;;;;4890097;28;20237;-79
2021/05/03 06:00:14;;;;;;;20.53;17.57;;;;;;;;;;4893786;29;20235;-79
2021/05/03 06:02:46;;;;;;;18.70;16.70;;;;;;;;;;4899267;28;20222;-80
2021/05/03 06:05:15;;;;;;;21.23;17.83;;;;;;;;;;4887923;29;20740;-79
2021/05/03 06:07:43;;;;;;;19.43;17.33;;;;;;;;;;4892498;29;20604;-80
2021/05/03 06:10:13;;;;;;;19.80;17.70;;;;;;;;;;4889133;29;20259;-79
2021/05/03 06:12:40;;;;;;;18.33;16.37;;;;;;;;;;4878289;29;20702;-85
2021/05/03 06:15:08;;;;;;;19.30;17.30;;;;;;;;;;4889578;29;20221;-85
2021/05/03 06:17:37;;;;;;;20.43;18.33;;;;;;;;;;4893170;29;20217;-78
2021/05/03 06:20:06;;;;;;;20.07;17.87;;;;;;;;;;4874267;29;20238;-79
2021/05/03 06:22:36;;;;;;;19.60;17.30;;;;;;;;;;4873608;29;20229;-79
2021/05/03 06:25:06;;;;;;;20.47;18.47;;;;;;;;;;4888266;28;20250;-79
2021/05/03 06:27:35;;;;;;;19.70;17.63;;;;;;;;;;4871064;29;20218;-80
2021/05/03 06:30:03;;;;;;;19.70;17.73;;;;;;;;;;4881455;29;20234;-81
2021/05/03 06:32:31;;;;;;;19.87;17.33;;;;;;;;;;4871689;29;20241;-79
2021/05/03 06:34:59;;;;;;;20.00;17.17;;;;;;;;;;4894654;28;20246;-79
2021/05/03 06:37:26;;;;;;;19.27;17.33;;;;;;;;;;4887270;29;20236;-80
2021/05/03 06:39:54;;;;;;;19.00;17.10;;;;;;;;;;4895682;29;20217;-84
2021/05/03 06:42:22;;;;;;;18.47;16.53;;;;;;;;;;4901036;29;20227;-83
2021/05/03 06:44:50;;;;;;;18.27;15.13;;;;;;;;;;4877811;29;20238;-81
2021/05/03 06:47:18;;;;;;;15.57;12.27;;;;;;;;;;4882671;29;20239;-81
2021/05/03 06:49:46;;;;;;;14.63;12.03;;;;;;;;;;4873992;29;20616;-78
2021/05/03 06:52:14;;;;;;;15.33;11.70;;;;;;;;;;4890435;28;20235;-81
2021/05/03 06:54:43;;;;;;;15.53;11.37;;;;;;;;;;4882401;29;20235;-79
2021/05/03 06:57:10;;;;;;;18.17;12.40;;;;;;;;;;4884076;29;20605;-79
2021/05/03 06:59:38;;;;;;;14.77;11.67;;;;;;;;;;4892484;29;20608;-82
2021/05/03 07:02:09;;;;;;;13.10;11.20;;;;;;;;;;4889099;28;20246;-79
2021/05/03 07:04:37;;;;;;;12.07;10.27;;;;;;;;;;4875493;29;20225;-79
2021/05/03 07:07:06;;;;;;;12.73;11.30;;;;;;;;;;4875627;29;20722;-82
2021/05/03 07:09:34;;;;;;;14.17;11.80;;;;;;;;;;4890805;29;20237;-79
2021/05/03 07:12:07;;;;;;;12.10;10.57;;;;;;;;;;4886569;29;20241;-78
2021/05/03 07:14:36;;;;;;;12.80;11.40;;;;;;;;;;4875772;29;20617;-79
2021/05/03 07:17:05;;;;;;;11.93;9.93;;;;;;;;;;4872469;28;20231;-82
2021/05/03 07:19:36;;;;;;;12.07;10.53;;;;;;;;;;4892839;29;20239;-79
2021/05/03 07:22:07;;;;;;;13.37;10.03;;;;;;;;;;4874637;29;20723;-77
2021/05/03 07:24:38;;;;;;;10.23;9.00;;;;;;;;;;4885854;28;20698;-78
2021/05/03 07:27:07;;;;;;;10.90;8.90;;;;;;;;;;4890520;29;20221;-78
2021/05/03 07:29:35;;;;;;;12.17;9.13;;;;;;;;;;4892050;29;20240;-80
2021/05/03 07:32:03;;;;;;;10.30;9.20;;;;;;;;;;4884788;28;20229;-81
2021/05/03 07:34:31;;;;;;;10.83;9.50;;;;;;;;;;4878845;29;20304;-81
2021/05/03 07:36:59;;;;;;;10.07;9.07;;;;;;;;;;4886967;29;20710;-78
2021/05/03 07:39:27;;;;;;;12.17;8.50;;;;;;;;;;4892164;28;20240;-81
2021/05/03 07:41:54;;;;;;;10.63;9.47;;;;;;;;;;4880950;29;20232;-84
2021/05/03 07:44:23;;;;;;;10.40;7.70;;;;;;;;;;4884128;28;20549;-77
2021/05/03 07:46:50;;;;;;;9.20;8.30;;;;;;;;;;4870754;28;20244;-78
2021/05/03 07:49:18;;;;;;;9.07;8.23;;;;;;;;;;4890956;29;20243;-78
2021/05/03 07:51:46;;;;;;;8.97;8.07;;;;;;;;;;4889486;29;20244;-77
2021/05/03 07:54:15;;;;;;;9.37;8.00;;;;;;;;;;4860724;29;20232;-77
2021/05/03 07:56:43;;;;;;;10.60;8.63;;;;;;;;;;4851133;29;20887;-79
2021/05/03 07:59:11;;;;;;;12.13;9.53;;;;;;;;;;4876334;28;20744;-78
2021/05/03 08:01:38;;;;;;;10.50;9.10;;;;;;;;;;4875357;29;21960;-78
2021/05/03 08:04:06;;;;;;;10.33;9.23;;;;;;;;;;4875186;28;20240;-78
2021/05/03 08:06:35;;;;;;;12.40;9.23;;;;;;;;;;4866875;29;20227;-81
2021/05/03 08:09:05;;;;;;;10.43;8.17;;;;;;;;;;4857739;29;20247;-78
2021/05/03 08:11:34;;;;;;;9.60;7.73;;;;;;;;;;4879838;29;20591;-81
2021/05/03 08:14:04;;;;;;;8.60;7.80;;;;;;;;;;4852015;28;20332;-79
2021/05/03 08:16:37;;;;;;;8.87;7.97;;;;;;;;;;4879605;29;20584;-78
2021/05/03 08:19:08;;;;;;;9.33;8.47;;;;;;;;;;4864154;29;20263;-80
2021/05/03 08:21:48;;;;;;;10.83;8.63;;;;;;;;;;4871372;29;20244;-78
2021/05/03 08:24:23;;;;;;;9.83;8.80;;;;;;;;;;4861324;29;20221;-78
2021/05/03 08:26:54;;;;;;;11.70;9.50;;;;;;;;;;4877867;29;20810;-81
2021/05/03 08:29:22;;;;;;;8.77;7.97;;;;;;;;;;4877394;29;20228;-79
2021/05/03 08:31:50;;;;;;;8.93;8.00;;;;;;;;;;4886489;28;20232;-80
2021/05/03 08:34:18;;;;;;;8.40;7.60;;;;;;;;;;4876385;29;21455;-78
2021/05/03 08:36:46;;;;;;;8.23;7.43;;;;;;;;;;4884937;29;20240;-78
2021/05/03 08:39:13;;;;;;;9.17;7.77;;;;;;;;;;4859683;29;20252;-78
2021/05/03 08:41:41;;;;;;;10.23;7.60;;;;;;;;;;4861721;29;20229;-78
2021/05/03 08:44:10;;;;;;;7.27;6.57;;;;;;;;;;4888292;29;20225;-78
2021/05/03 08:46:41;;;;;;;7.73;7.03;;;;;;;;;;4875589;29;20229;-78
2021/05/03 08:49:17;;;;;;;8.03;7.23;;;;;;;;;;4864634;29;20244;-78
2021/05/03 08:51:49;;;;;;;8.47;7.63;;;;;;;;;;4884253;28;20247;-81
2021/05/03 08:54:23;;;;;;;7.97;7.17;;;;;;;;;;4883531;29;20252;-79
2021/05/03 08:56:50;;;;;;;7.07;6.40;;;;;;;;;;4882666;28;20229;-78
2021/05/03 08:59:19;;;;;;;6.97;6.27;;;;;;;;;;4883978;29;20241;-79
2021/05/03 09:01:48;;;;;;;7.70;6.90;;;;;;;;;;4871464;28;20229;-79
2021/05/03 09:04:17;;;;;;;8.00;6.93;;;;;;;;;;4883884;29;20236;-78
2021/05/03 09:07:01;;;;;;;8.20;7.40;;;;;;;;;;4904777;29;20244;-77
2021/05/03 09:09:32;;;;;;;8.47;7.67;;;;;;;;;;4908787;28;20236;-77
2021/05/03 09:12:16;;;;;;;7.80;7.10;;;;;;;;;;4891700;29;20232;-78
2021/05/03 09:14:48;;;;;;;7.13;6.23;;;;;;;;;;4889463;29;20229;-79
2021/05/03 09:17:27;;;;;;;8.23;7.07;;;;;;;;;;4891997;28;20245;-79
2021/05/03 09:19:55;;;;;;;7.07;6.37;;;;;;;;;;4890379;28;20221;-78
2021/05/03 09:22:28;;;;;;;7.13;6.43;;;;;;;;;;4887349;29;20228;-78
2021/05/03 09:25:21;;;;;;;8.13;7.37;;;;;;;;;;4890907;29;20641;-81
2021/05/03 09:27:50;;;;;;;7.40;5.80;;;;;;;;;;4889960;29;20246;-78
2021/05/03 09:30:33;;;;;;;6.70;6.00;;;;;;;;;;4892543;29;20232;-80
2021/05/03 09:33:24;;;;;;;5.50;5.00;;;;;;;;;;4916185;29;20252;-83
2021/05/03 09:35:53;;;;;;;6.67;5.93;;;;;;;;;;4912493;29;20235;-80
2021/05/03 09:38:29;;;;;;;6.30;5.47;;;;;;;;;;4897072;28;20236;-78
2021/05/03 09:41:14;;;;;;;6.93;5.80;;;;;;;;;;4890932;28;20228;-78
2021/05/03 09:43:42;;;;;;;6.90;6.30;;;;;;;;;;4873114;29;20764;-80
2021/05/03 09:46:32;;;;;;;6.17;5.43;;;;;;;;;;4885239;29;20609;-78
2021/05/03 09:49:01;;;;;;;5.23;4.73;;;;;;;;;;4888815;29;20244;-79
2021/05/03 09:51:37;;;;;;;6.63;5.93;;;;;;;;;;4889538;28;20726;-79
2021/05/03 09:54:07;;;;;;;5.10;4.60;;;;;;;;;;4891819;29;20224;-78
2021/05/03 09:56:52;;;;;;;6.37;4.90;;;;;;;;;;4883190;29;20241;-79
2021/05/03 09:59:39;;;;;;;5.50;4.83;;;;;;;;;;4873193;29;20248;-81
2021/05/03 10:02:17;;;;;;;6.30;5.70;;;;;;;;;;4889208;28;20240;-79
2021/05/03 10:04:54;;;;;;;6.43;5.90;;;;;;;;;;4877192;28;20231;-79
2021/05/03 10:07:25;;;;;;;5.20;4.70;;;;;;;;;;4885918;29;20224;-79
2021/05/03 10:09:59;;;;;;;4.83;4.40;;;;;;;;;;4874275;29;20730;-82
2021/05/03 10:12:29;;;;;;;5.60;4.53;;;;;;;;;;4892031;29;20229;-82
2021/05/03 10:14:57;;;;;;;4.90;4.50;;;;;;;;;;4892305;28;20221;-79
2021/05/03 10:17:28;;;;;;;4.77;4.37;;;;;;;;;;4890988;29;20612;-81
2021/05/03 10:20:02;;;;;;;4.47;4.07;;;;;;;;;;4886356;28;20242;-82
2021/05/03 10:22:31;;;;;;;4.70;3.83;;;;;;;;;;4874849;29;20633;-82
2021/05/03 10:25:00;;;;;;;4.17;3.83;;;;;;;;;;4890137;28;20225;-80
2021/05/03 10:27:28;;;;;;;5.23;4.73;;;;;;;;;;4887703;28;20229;-78
2021/05/03 10:30:07;;;;;;;5.97;5.27;;;;;;;;;;4889692;29;20229;-79
2021/05/03 10:32:36;;;;;;;4.60;4.17;;;;;;;;;;4873985;29;20628;-80
2021/05/03 10:35:06;;;;;;;5.15;4.75;;;;;;;;;;4888325;28;20240;-79
2021/05/03 10:37:42;;;;;;;5.30;4.80;;;;;;;;;;4891829;29;20702;-80
2021/05/03 10:40:47;;;;;;;5.50;4.93;;;;;;;;;;4886374;29;20228;-79
2021/05/03 10:43:26;;;;;;;5.57;4.70;;;;;;;;;;4869392;29;20240;-81
2021/05/03 10:46:51;;;;;;;4.78;4.25;;;;;;;;;;4880016;29;20228;-79
2021/05/03 10:49:10;;;;;;;5.07;4.57;;;;;;;;;;4882890;28;20252;-79
2021/05/03 10:51:44;;;;;;;5.00;4.60;;;;;;;;;;4890742;28;20231;-79
2021/05/03 10:54:48;;;;;;;5.25;4.80;;;;;;;;;;4891642;29;20231;-79
2021/05/03 10:57:36;;;;;;;5.28;4.88;;;;;;;;;;4899823;29;20223;-78
2021/05/03 11:00:08;;;;;;;5.28;4.82;;;;;;;;;;4883719;29;20251;-77
2021/05/03 11:02:46;;;;;;;5.03;4.10;;;;;;;;;;4888805;29;20221;-78
2021/05/03 11:05:25;;;;;;;4.05;3.75;;;;;;;;;;4882711;28;20217;-78
2021/05/03 11:08:29;;;;;;;4.75;4.35;;;;;;;;;;4874310;28;20248;-77
2021/05/03 11:11:13;;;;;;;5.13;4.00;;;;;;;;;;4868807;29;20236;-77
2021/05/03 11:14:00;;;;;;;8.07;4.57;;;;;;;;;;4858874;29;20232;-77
2021/05/03 11:16:57;;;;;;;4.32;4.00;;;;;;;;;;4884127;28;20229;-77
2021/05/03 11:19:37;;;;;;;4.63;4.25;;;;;;;;;;4889876;29;20226;-77
2021/05/03 11:22:08;;;;;;;4.20;3.90;;;;;;;;;;4888759;28;20232;-80
2021/05/03 11:24:48;;;;;;;4.40;4.00;;;;;;;;;;4872705;29;20740;-77
2021/05/03 11:27:24;;;;;;;5.25;4.53;;;;;;;;;;4870163;29;20232;-77
2021/05/03 11:29:58;;;;;;;4.55;4.15;;;;;;;;;;4873415;28;22579;-77
2021/05/03 11:32:32;;;;;;;4.30;3.90;;;;;;;;;;4893081;29;20598;-77
2021/05/03 11:35:06;;;;;;;4.80;4.40;;;;;;;;;;4889041;28;20233;-77
2021/05/03 11:37:52;;;;;;;4.22;3.90;;;;;;;;;;4888543;29;20456;-77
2021/05/03 11:40:37;;;;;;;3.70;3.40;;;;;;;;;;4873291;29;20229;-77
2021/05/03 11:46:04;;;;;;;3.47;3.17;;;;;;;;;;4876439;29;20233;-77
2021/05/03 11:48:33;;;;;;;4.05;3.75;;;;;;;;;;4888262;29;20235;-78
2021/05/03 11:51:05;;;;;;;3.45;3.22;;;;;;;;;;4888003;29;20503;-77
2021/05/03 11:53:41;;;;;;;4.15;3.85;;;;;;;;;;4891157;29;20580;-79
2021/05/03 11:56:20;;;;;;;3.75;3.55;;;;;;;;;;4882232;29;20235;-77
2021/05/03 11:58:50;;;;;;;3.47;3.22;;;;;;;;;;4890533;28;20236;-78
2021/05/03 12:01:18;;;;;;;3.95;3.65;;;;;;;;;;4877094;29;21727;-77
2021/05/03 12:03:47;;;;;;;3.40;3.20;;;;;;;;;;4885152;29;20236;-78
2021/05/03 12:06:45;;;;;;;3.88;3.55;;;;;;;;;;4890100;28;20224;-78
2021/05/03 12:09:14;;;;;;;3.90;3.60;;;;;;;;;;4905395;29;20272;-77
2021/05/03 12:11:58;;;;;;;4.70;4.00;;;;;;;;;;4892567;28;20235;-77
2021/05/03 12:14:43;;;;;;;3.67;3.38;;;;;;;;;;4891252;29;20711;-78
2021/05/03 12:17:15;;;;;;;4.13;3.80;;;;;;;;;;4882521;29;20243;-78
2021/05/03 12:19:43;;;;;;;4.00;3.70;;;;;;;;;;4899210;28;20225;-77
2021/05/03 12:22:16;;;;;;;3.88;3.58;;;;;;;;;;4883726;29;20244;-77
2021/05/03 12:24:47;;;;;;;3.38;3.17;;;;;;;;;;4888460;29;20221;-77
2021/05/03 12:27:15;;;;;;;3.95;3.05;;;;;;;;;;4888399;29;20240;-78
2021/05/03 12:29:45;;;;;;;3.80;3.50;;;;;;;;;;4921304;29;20344;-78
2021/05/03 12:32:14;;;;;;;3.67;3.20;;;;;;;;;;4899531;28;20233;-77
2021/05/03 12:34:48;;;;;;;3.80;3.50;;;;;;;;;;4871005;29;20235;-77
2021/05/03 12:37:19;;;;;;;3.75;3.45;;;;;;;;;;4872284;29;20248;-79
2021/05/03 12:39:59;;;;;;;3.88;3.58;;;;;;;;;;4883942;28;20239;-78
2021/05/03 12:42:31;;;;;;;3.55;3.35;;;;;;;;;;4878829;29;20718;-78
2021/05/03 12:45:01;;;;;;;4.10;3.80;;;;;;;;;;4883090;29;20229;-77
2021/05/03 12:47:40;;;;;;;3.63;3.33;;;;;;;;;;4878573;29;20711;-78
2021/05/03 12:50:17;;;;;;;3.28;3.08;;;;;;;;;;4895499;28;20228;-77
2021/05/03 12:52:58;;;;;;;3.33;3.03;;;;;;;;;;4892347;28;20683;-77
2021/05/03 12:55:42;;;;;;;3.10;2.80;;;;;;;;;;4895397;29;20233;-79
2021/05/03 12:58:21;;;;;;;3.08;2.88;;;;;;;;;;4881521;29;20343;-79
2021/05/03 13:03:42;;;;;;;3.28;2.95;;;;;;;;;;4870710;29;20239;-79
2021/05/03 13:06:18;;;;;;;3.38;3.15;;;;;;;;;;4889851;29;20232;-78
2021/05/03 13:09:06;;;;;;;3.50;3.20;;;;;;;;;;4887432;29;20232;-78
2021/05/03 13:29:05;;;;;;;2.75;2.53;;;;;;;;;;4890055;29;20233;-80
2021/05/03 13:31:33;;;;;;;3.35;3.10;;;;;;;;;;4879288;29;20229;-78
2021/05/03 13:34:02;;;;;;;3.53;3.22;;;;;;;;;;4891471;29;20742;-79
2021/05/03 13:36:30;;;;;;;3.58;2.92;;;;;;;;;;4881215;28;20225;-77
2021/05/03 13:38:57;;;;;;;5.22;2.92;;;;;;;;;;4882698;29;20828;-77
2021/05/03 13:41:25;;;;;;;3.53;3.25;;;;;;;;;;4876506;29;20726;-79
2021/05/03 13:43:53;;;;;;;3.10;2.90;;;;;;;;;;4883316;29;20276;-77
2021/05/03 13:46:21;;;;;;;4.15;3.75;;;;;;;;;;4884457;28;20236;-79
2021/05/03 13:48:49;;;;;;;3.03;2.83;;;;;;;;;;4891606;29;20229;-79
2021/05/03 13:51:17;;;;;;;3.60;3.40;;;;;;;;;;4895246;29;20729;-79
2021/05/03 13:53:44;;;;;;;3.80;3.50;;;;;;;;;;4896992;29;20248;-79
2021/05/03 13:56:12;;;;;;;3.90;2.70;;;;;;;;;;4890908;28;20315;-79
2021/05/03 13:58:40;;;;;;;3.38;3.00;;;;;;;;;;4884565;29;20225;-79
2021/05/03 14:01:07;;;;;;;3.30;3.10;;;;;;;;;;4872747;29;20225;-79
2021/05/03 14:03:36;;;;;;;3.00;2.80;;;;;;;;;;4890675;29;20233;-79
2021/05/03 14:06:04;;;;;;;3.42;3.13;;;;;;;;;;4892629;29;20220;-78
2021/05/03 14:08:31;;;;;;;3.20;2.90;;;;;;;;;;4875878;29;20237;-78
2021/05/03 14:11:00;;;;;;;3.30;3.05;;;;;;;;;;4890870;28;20232;-79
2021/05/03 14:13:28;;;;;;;3.53;3.30;;;;;;;;;;4889720;29;20240;-78
2021/05/03 14:15:55;;;;;;;3.10;2.90;;;;;;;;;;4875641;28;20220;-78
2021/05/03 14:18:23;;;;;;;3.13;2.92;;;;;;;;;;4891542;29;20765;-79
2021/05/03 14:20:52;;;;;;;3.40;3.10;;;;;;;;;;4889852;29;20236;-79
2021/05/03 14:23:19;;;;;;;3.50;3.20;;;;;;;;;;4882177;28;20229;-78
2021/05/03 14:25:49;;;;;;;3.40;3.20;;;;;;;;;;4876658;29;20252;-80
2021/05/03 14:28:21;;;;;;;3.60;3.30;;;;;;;;;;4890747;29;20249;-77
2021/05/03 14:30:53;;;;;;;3.60;3.25;;;;;;;;;;4889478;28;20229;-77
2021/05/03 14:33:22;;;;;;;2.92;2.72;;;;;;;;;;4892576;29;20259;-78
2021/05/03 14:35:50;;;;;;;3.08;2.70;;;;;;;;;;4887161;29;20226;-78
2021/05/03 14:38:18;;;;;;;3.00;2.50;;;;;;;;;;4886118;28;20237;-78
2021/05/03 14:40:46;;;;;;;2.97;2.67;;;;;;;;;;4897689;29;20245;-78
2021/05/03 14:43:14;;;;;;;3.08;2.88;;;;;;;;;;4889436;29;20233;-78
2021/05/03 14:45:49;;;;;;;3.10;2.90;;;;;;;;;;4893610;29;20236;-78
2021/05/03 14:48:21;;;;;;;3.40;3.20;;;;;;;;;;4874338;29;20232;-78
2021/05/03 14:51:01;;;;;;;3.00;2.80;;;;;;;;;;4890248;29;20608;-78
2021/05/03 14:53:36;;;;;;;2.90;2.70;;;;;;;;;;4885820;29;20247;-78
2021/05/03 14:56:04;;;;;;;3.03;2.80;;;;;;;;;;4891328;29;22175;-78
2021/05/03 14:58:32;;;;;;;3.00;2.70;;;;;;;;;;4898758;29;20243;-78
2021/05/03 15:01:00;;;;;;;3.30;3.10;;;;;;;;;;4892962;29;20228;-78
2021/05/03 15:03:27;;;;;;;3.53;3.10;;;;;;;;;;4881382;29;20228;-78
2021/05/03 15:05:58;;;;;;;3.15;2.85;;;;;;;;;;4902305;28;20590;-78
2021/05/03 15:08:27;;;;;;;3.28;3.08;;;;;;;;;;4863179;29;20710;-78
2021/05/03 15:10:56;;;;;;;3.30;3.00;;;;;;;;;;4887837;29;20228;-78
2021/05/03 15:13:35;;;;;;;3.38;3.08;;;;;;;;;;4884552;28;20715;-78
2021/05/03 15:16:09;;;;;;;3.45;3.15;;;;;;;;;;4875730;28;20233;-78
2021/05/03 15:19:02;;;;;;;3.35;2.95;;;;;;;;;;4892056;29;20239;-78